Upper Providence, Pennsylvania
Current Conditions -  °F | °C
As of 4:33 PM on Wednesday 26 Nov 2014 (Local Time) from KPHL Reporting Station
Light Rain Light Rain  
Wind Chill: 27°   Ceiling: 1100
Heat Index: 36°   Visibility: 7mi
Dew Point: 33°   Wind: 15mph
Humidity: 89%   Direction: 360°N
Pressure: 29.83"   Gusts: NA
Location:  39.9207°N, 75.4181°W
Report Text: KPHL 262133Z 36013KT 7SM -RA OVC011 02/01 A2983 RMK AO2 P0001 I1000 T00220006 $
Loading
Personal Weather Stations






























Interactive Weather Map New forecast layout! Learn more

10-Day Weather Forecast

Advertisements
Track Severe Weather on mobile